Time;durP1;ratioP1;P1;durP2;ratioP2;P2;SDS_P1;SDS_P2;PMS_P1;PMS_P2;Temp;Humidity;BMP_temperature;BMP_pressure;BME280_temperature;BME280_humidity;BME280_pressure;Samples;Min_cycle;Max_cycle;Signal;HPM_P1;HPM_P2
2021/12/16 00:04:52;;;;;;;27.75;15.57;;;;;;;6.96;100.00;102564.06;4966878;28;20038;-89
2021/12/16 00:07:21;;;;;;;29.25;17.75;;;;;;;6.94;100.00;102570.94;4965952;28;20046;-87
2021/12/16 00:09:58;;;;;;;29.33;15.75;;;;;;;6.89;100.00;102570.75;4968234;28;20133;-88
2021/12/16 00:32:30;;;;;;;30.70;16.70;;;;;;;6.84;100.00;102574.91;4982130;28;20046;-89
2021/12/16 00:34:57;;;;;;;36.50;18.63;;;;;;;6.89;100.00;102572.50;4977370;28;20568;-87
2021/12/16 00:37:27;;;;;;;38.38;19.73;;;;;;;6.92;100.00;102569.97;4983228;28;20055;-87
2021/12/16 00:39:54;;;;;;;29.92;16.38;;;;;;;6.88;100.00;102566.41;4963802;28;20054;-88
2021/12/16 00:42:33;;;;;;;35.92;18.73;;;;;;;6.76;100.00;102566.81;4973119;28;20058;-88
2021/12/16 00:45:28;;;;;;;38.63;19.80;;;;;;;6.69;100.00;102571.72;4975287;28;20104;-87
2021/12/16 00:47:59;;;;;;;33.85;20.00;;;;;;;6.65;100.00;102568.13;4963309;28;20074;-87
2021/12/16 00:56:07;;;;;;;34.63;19.50;;;;;;;6.63;100.00;102561.97;4963243;28;20184;-88
2021/12/16 00:58:43;;;;;;;33.60;18.60;;;;;;;6.61;100.00;102568.84;4948113;28;20140;-86
2021/12/16 01:01:23;;;;;;;34.70;19.92;;;;;;;6.62;100.00;102568.91;4963260;28;20061;-88
2021/12/16 01:04:00;;;;;;;34.85;18.27;;;;;;;6.60;100.00;102574.88;4946584;28;21600;-87
2021/12/16 01:09:53;;;;;;;45.97;19.67;;;;;;;6.54;100.00;102569.44;4974271;28;20050;-88
2021/12/16 01:34:47;;;;;;;30.60;15.88;;;;;;;6.60;100.00;102569.69;4959499;28;20038;-86
2021/12/16 01:37:56;;;;;;;30.15;17.77;;;;;;;6.61;100.00;102568.84;4966588;28;20127;-87
2021/12/16 01:40:41;;;;;;;32.05;15.88;;;;;;;6.65;100.00;102572.44;4945024;28;20046;-88
2021/12/16 01:46:29;;;;;;;27.45;16.50;;;;;;;6.74;100.00;102578.91;4974346;28;20537;-89
2021/12/16 01:49:27;;;;;;;26.35;14.70;;;;;;;6.78;100.00;102585.97;4949969;28;20054;-87
2021/12/16 01:52:06;;;;;;;26.55;14.40;;;;;;;6.82;100.00;102586.09;4957766;28;20544;-87
2021/12/16 01:57:24;;;;;;;;;;;;;;;6.87;100.00;102582.84;4961449;28;20083;-89
2021/12/16 02:00:00;;;;;;;29.83;13.95;;;;;;;6.86;100.00;102575.00;4964889;28;19979;-89
2021/12/16 02:02:38;;;;;;;28.63;14.63;;;;;;;6.85;100.00;102581.88;4975529;28;20536;-88
2021/12/16 02:05:28;;;;;;;24.25;12.32;;;;;;;6.87;99.98;102580.25;4954617;28;20053;-89
2021/12/16 02:08:18;;;;;;;28.33;13.40;;;;;;;6.91;99.79;102576.91;4965835;28;20132;-89
2021/12/16 02:11:04;;;;;;;24.42;12.50;;;;;;;6.93;99.73;102582.19;4963084;28;20194;-87
2021/12/16 02:27:45;;;;;;;22.00;11.57;;;;;;;7.07;98.00;102567.94;4970245;28;20108;-86
2021/12/16 02:34:04;;;;;;;19.60;12.02;;;;;;;7.07;98.18;102580.09;4965050;28;20497;-89
2021/12/16 02:36:38;;;;;;;18.65;9.93;;;;;;;7.09;98.22;102576.72;4966959;28;20062;-89
2021/12/16 02:39:30;;;;;;;18.23;10.10;;;;;;;7.07;98.62;102573.16;4972534;28;20881;-88
2021/12/16 02:42:11;;;;;;;21.90;11.57;;;;;;;7.08;98.70;102582.75;4957224;28;20069;-88
2021/12/16 02:48:27;;;;;;;18.23;10.07;;;;;;;7.09;98.50;102578.41;4961535;28;20074;-89
2021/12/16 02:50:14;;;;;;;15.98;10.18;;;;;;;7.08;98.96;102590.56;4958775;28;20073;-88
2021/12/16 02:52:41;;;;;;;18.80;10.75;;;;;;;7.08;99.20;102593.16;4966556;28;20859;-89
2021/12/16 02:55:12;;;;;;;21.15;10.48;;;;;;;7.09;98.80;102586.22;4949229;28;20508;-86
2021/12/16 02:57:47;;;;;;;17.48;11.43;;;;;;;7.10;99.08;102591.50;4968275;28;20057;-88
2021/12/16 03:00:25;;;;;;;19.30;12.38;;;;;;;7.16;99.25;102596.06;4963675;28;20125;-89
2021/12/16 03:02:53;;;;;;;20.75;11.45;;;;;;;7.17;99.17;102597.84;4973854;28;20125;-87
2021/12/16 03:05:22;;;;;;;21.20;11.25;;;;;;;7.18;99.31;102603.91;4979452;28;20050;-87
2021/12/16 03:07:51;;;;;;;17.05;11.95;;;;;;;7.16;99.36;102597.75;4977834;28;20100;-88
2021/12/16 03:13:09;;;;;;;22.20;12.50;;;;;;;7.18;99.75;102596.97;4965159;28;20069;-90
2021/12/16 03:15:59;;;;;;;24.65;13.70;;;;;;;7.19;99.94;102596.16;4982420;28;20051;-87
2021/12/16 03:18:37;;;;;;;24.38;14.50;;;;;;;7.21;100.00;102599.72;4959502;28;20038;-88
2021/12/16 03:21:15;;;;;;;28.38;13.95;;;;;;;7.24;100.00;102585.91;4965313;28;20121;-90
2021/12/16 03:23:57;;;;;;;24.27;13.27;;;;;;;7.25;100.00;102593.78;4974713;28;20054;-90
2021/12/16 03:29:36;;;;;;;;;;;;;;;7.32;100.00;102597.47;4976848;28;20058;-90
2021/12/16 03:35:24;;;;;;;27.50;13.77;;;;;;;7.42;100.00;102581.34;4916778;28;20172;-89
2021/12/16 03:37:59;;;;;;;30.23;16.10;;;;;;;7.50;100.00;102591.16;4982835;28;20050;-91
2021/12/16 03:40:27;;;;;;;26.70;14.45;;;;;;;7.51;100.00;102590.31;4991725;28;20034;-89
2021/12/16 03:43:19;;;;;;;30.15;17.08;;;;;;;7.51;100.00;102595.53;4987504;28;20065;-90
2021/12/16 03:46:28;;;;;;;30.92;16.50;;;;;;;7.51;100.00;102591.22;4981539;28;20064;-89
2021/12/16 03:49:03;;;;;;;34.47;17.25;;;;;;;7.54;100.00;102598.25;5001137;28;20125;-87
2021/12/16 03:51:46;;;;;;;30.67;17.02;;;;;;;7.54;100.00;102598.25;4971931;28;20043;-85
2021/12/16 03:54:26;;;;;;;34.78;18.55;;;;;;;7.56;100.00;102589.66;4978743;28;20047;-88
2021/12/16 03:56:55;;;;;;;40.15;17.50;;;;;;;7.57;100.00;102595.75;4986989;28;20941;-86
2021/12/16 03:59:28;;;;;;;35.97;18.10;;;;;;;7.57;100.00;102596.66;4968100;28;20050;-88
2021/12/16 04:01:57;;;;;;;35.03;18.27;;;;;;;7.61;100.00;102592.41;4989230;28;20032;-88
2021/12/16 04:04:24;;;;;;;32.58;17.77;;;;;;;7.62;100.00;102596.78;4973475;28;20290;-90
2021/12/16 04:06:53;;;;;;;36.25;19.77;;;;;;;7.62;100.00;102599.41;4979948;28;20126;-90
2021/12/16 04:09:22;;;;;;;33.00;18.75;;;;;;;7.65;100.00;102596.00;4981787;28;20430;-88
2021/12/16 04:12:02;;;;;;;40.25;19.27;;;;;;;7.68;100.00;102598.72;4957334;28;21157;-88
2021/12/16 04:14:30;;;;;;;37.85;19.90;;;;;;;7.71;100.00;102593.63;4974943;28;20066;-87
2021/12/16 04:17:00;;;;;;;43.53;20.00;;;;;;;7.73;100.00;102589.31;4970352;28;20077;-89
2021/12/16 04:19:29;;;;;;;42.88;20.27;;;;;;;7.76;100.00;102607.69;4972017;28;20129;-88
2021/12/16 04:22:11;;;;;;;36.63;18.75;;;;;;;7.77;100.00;102606.88;4965060;28;20042;-90
2021/12/16 04:24:40;;;;;;;37.28;21.13;;;;;;;7.81;100.00;102603.53;4948415;28;20058;-85
2021/12/16 04:27:08;;;;;;;43.83;23.00;;;;;;;7.84;100.00;102600.16;4968135;28;20062;-87
2021/12/16 04:29:39;;;;;;;41.05;20.02;;;;;;;7.85;100.00;102610.63;4969491;28;20477;-87
2021/12/16 04:32:06;;;;;;;39.08;21.23;;;;;;;7.89;100.00;102624.66;4966001;28;20057;-88
2021/12/16 04:34:33;;;;;;;43.47;22.48;;;;;;;7.90;100.00;102618.56;4946531;28;20050;-89
2021/12/16 04:37:00;;;;;;;43.20;21.67;;;;;;;7.92;100.00;102627.34;4962917;28;20046;-84
2021/12/16 04:39:37;;;;;;;43.17;23.67;;;;;;;7.92;100.00;102630.84;4968272;28;20046;-88
2021/12/16 04:42:07;;;;;;;49.58;23.65;;;;;;;7.90;100.00;102637.75;4962924;28;20089;-88
2021/12/16 04:44:35;;;;;;;46.05;21.58;;;;;;;7.88;100.00;102642.00;4969547;28;20042;-88
2021/12/16 04:47:06;;;;;;;51.58;24.23;;;;;;;7.86;100.00;102645.38;4973973;28;20057;-87
2021/12/16 04:49:35;;;;;;;51.92;26.00;;;;;;;7.81;100.00;102647.84;4979913;28;20065;-88
2021/12/16 04:52:08;;;;;;;50.78;25.73;;;;;;;7.74;100.00;102646.75;4982457;28;20145;-89
2021/12/16 04:54:36;;;;;;;;;;;;;;;7.64;100.00;102647.28;4967020;28;20054;-85
2021/12/16 04:57:03;;;;;;;54.15;27.27;;;;;;;7.56;100.00;102653.91;4982285;28;20671;-87
2021/12/16 04:59:33;;;;;;;49.28;25.83;;;;;;;7.50;100.00;102651.09;4963147;28;20057;-88
2021/12/16 05:02:13;;;;;;;55.30;28.83;;;;;;;7.47;100.00;102649.28;4946439;28;20580;-85
2021/12/16 05:04:41;;;;;;;55.67;28.23;;;;;;;7.42;100.00;102649.09;4960182;28;20050;-88
2021/12/16 05:07:09;;;;;;;65.60;30.40;;;;;;;7.41;100.00;102657.75;4947243;28;20485;-88
2021/12/16 05:12:23;;;;;;;58.00;27.85;;;;;;;7.38;100.00;102657.63;4947824;28;20065;-87
2021/12/16 05:14:51;;;;;;;58.10;30.55;;;;;;;7.36;100.00;102655.81;4983804;28;20204;-87
2021/12/16 05:17:29;;;;;;;60.15;31.27;;;;;;;7.34;100.00;102660.97;4946685;28;21148;-87
2021/12/16 05:20:00;;;;;;;56.83;29.05;;;;;;;7.34;100.00;102657.44;4960531;28;20469;-90
2021/12/16 05:25:21;;;;;;;61.47;31.33;;;;;;;7.29;100.00;102647.75;4978728;28;20075;-88
2021/12/16 05:27:48;;;;;;;66.88;31.02;;;;;;;7.31;100.00;102657.34;4955275;28;20056;-89
2021/12/16 05:30:15;;;;;;;60.90;31.40;;;;;;;7.29;100.00;102652.09;4937204;28;20173;-87
2021/12/16 05:32:45;;;;;;;64.70;29.77;;;;;;;7.28;100.00;102668.56;4963666;28;20189;-88
2021/12/16 05:35:20;;;;;;;67.22;31.65;;;;;;;7.28;100.00;102664.22;4964600;28;20064;-87
2021/12/16 05:37:53;;;;;;;60.60;31.30;;;;;;;7.31;100.00;102652.16;4967194;28;20524;-91
2021/12/16 05:40:29;;;;;;;67.60;32.78;;;;;;;7.32;100.00;102667.81;4949436;28;20081;-87
2021/12/16 05:43:02;;;;;;;60.78;29.90;;;;;;;7.32;100.00;102678.25;4960099;28;20128;-89
2021/12/16 05:45:30;;;;;;;61.37;33.30;;;;;;;7.35;100.00;102693.09;4946448;28;20042;-87
2021/12/16 05:48:10;;;;;;;60.70;33.25;;;;;;;7.37;100.00;102687.13;4962188;28;20080;-87
2021/12/16 05:50:45;;;;;;;60.65;29.70;;;;;;;7.40;100.00;102696.78;4963997;28;20042;-88
2021/12/16 05:53:13;;;;;;;59.78;30.88;;;;;;;7.39;100.00;102695.91;4978740;28;20501;-89
2021/12/16 05:55:46;;;;;;;60.08;29.45;;;;;;;7.40;100.00;102707.19;4996552;28;20061;-88
2021/12/16 06:01:06;;;;;;;59.20;28.20;;;;;;;7.40;100.00;102710.69;4951608;28;20043;-86
2021/12/16 06:03:37;;;;;;;60.55;30.10;;;;;;;7.42;100.00;102714.25;4957729;28;20046;-88
2021/12/16 06:06:15;;;;;;;66.15;31.77;;;;;;;7.45;100.00;102714.34;4949365;28;20064;-85
2021/12/16 06:08:45;;;;;;;65.57;32.40;;;;;;;7.46;100.00;102715.25;4967473;28;20293;-88
2021/12/16 06:14:12;;;;;;;71.25;32.22;;;;;;;7.44;100.00;102728.22;4950226;28;20046;-88
2021/12/16 06:22:39;;;;;;;69.28;31.77;;;;;;;7.42;100.00;102734.22;4979567;28;20054;-88
2021/12/16 06:28:03;;;;;;;64.43;34.22;;;;;;;7.42;100.00;102750.72;4969347;28;20123;-89
2021/12/16 06:30:42;;;;;;;72.05;32.25;;;;;;;7.42;100.00;102739.41;4970428;28;20057;-88
2021/12/16 06:33:15;;;;;;;88.43;36.55;;;;;;;7.41;100.00;102740.25;4946036;28;20059;-89
2021/12/16 06:35:44;;;;;;;78.30;34.47;;;;;;;7.41;100.00;102742.84;4957781;28;20061;-88
2021/12/16 06:38:24;;;;;;;67.70;33.42;;;;;;;7.42;100.00;102750.72;4964672;28;20054;-87
2021/12/16 06:40:54;;;;;;;83.78;34.85;;;;;;;7.43;100.00;102751.59;4983988;28;20042;-85
2021/12/16 06:43:26;;;;;;;77.35;32.45;;;;;;;7.43;100.00;102757.72;4985836;28;20042;-86
2021/12/16 06:45:55;;;;;;;71.43;33.13;;;;;;;7.45;100.00;102752.56;4962505;28;20104;-88
2021/12/16 06:48:27;;;;;;;78.20;33.50;;;;;;;7.44;100.00;102750.78;4966344;28;20061;-86
2021/12/16 06:50:57;;;;;;;71.03;33.65;;;;;;;7.43;100.00;102757.72;4958551;28;20054;-86
2021/12/16 06:53:37;;;;;;;74.80;33.08;;;;;;;7.45;100.00;102761.25;4964214;28;21203;-86
2021/12/16 06:56:09;;;;;;;64.32;31.63;;;;;;;7.47;100.00;102758.72;4946706;28;20057;-86
2021/12/16 06:58:45;;;;;;;62.28;32.08;;;;;;;7.49;100.00;102761.38;4997245;28;20054;-85
2021/12/16 07:01:37;;;;;;;67.15;31.85;;;;;;;7.50;100.00;102763.16;4963316;28;20050;-87
2021/12/16 07:04:07;;;;;;;62.58;31.88;;;;;;;7.50;100.00;102761.44;4978952;28;20097;-88
2021/12/16 07:06:35;;;;;;;66.72;31.42;;;;;;;7.52;100.00;102758.88;4963860;28;20117;-86
2021/12/16 07:09:18;;;;;;;64.45;32.17;;;;;;;7.53;100.00;102765.88;4980220;28;20161;-88
2021/12/16 07:11:52;;;;;;;75.35;34.30;;;;;;;7.51;100.00;102760.63;5004665;28;20065;-86
2021/12/16 07:14:34;;;;;;;64.80;33.20;;;;;;;7.53;100.00;102761.53;4983464;28;20060;-87
2021/12/16 07:17:01;;;;;;;61.33;30.65;;;;;;;7.55;100.00;102759.91;4995810;28;20050;-86
2021/12/16 07:19:27;;;;;;;66.47;33.45;;;;;;;7.55;100.00;102764.22;5012563;28;20050;-87
2021/12/16 07:21:54;;;;;;;67.28;31.10;;;;;;;7.57;100.00;102759.94;4984285;28;20253;-87
2021/12/16 07:24:21;;;;;;;62.40;32.42;;;;;;;7.56;100.00;102769.50;4993576;28;20034;-85
2021/12/16 07:26:49;;;;;;;69.32;34.35;;;;;;;7.58;100.00;102786.06;5008383;28;20109;-88
2021/12/16 07:29:17;;;;;;;64.38;31.25;;;;;;;7.60;100.00;102784.41;4996837;28;20040;-89
2021/12/16 07:31:44;;;;;;;63.92;31.98;;;;;;;7.62;100.00;102784.47;4993972;28;20145;-86
2021/12/16 07:34:13;;;;;;;62.80;30.90;;;;;;;7.64;100.00;102790.63;4976825;28;20120;-88
2021/12/16 07:36:44;;;;;;;66.80;33.05;;;;;;;7.64;100.00;102797.53;4992509;28;20554;-88
2021/12/16 07:39:17;;;;;;;59.78;31.77;;;;;;;7.65;100.00;102788.91;4987552;28;20105;-89
2021/12/16 07:41:48;;;;;;;67.80;32.80;;;;;;;7.69;100.00;102785.56;4999293;28;20030;-88
2021/12/16 07:44:17;;;;;;;57.45;31.35;;;;;;;7.71;100.00;102795.22;4984824;28;20105;-88
2021/12/16 07:46:50;;;;;;;62.53;31.58;;;;;;;7.73;100.00;102798.78;4975748;28;20081;-87
2021/12/16 07:49:27;;;;;;;64.05;30.98;;;;;;;7.75;100.00;102791.91;4978326;28;20057;-88
2021/12/16 07:51:56;;;;;;;65.15;32.25;;;;;;;7.75;100.00;102784.09;4969428;28;20092;-88
2021/12/16 07:54:25;;;;;;;66.88;32.38;;;;;;;7.78;100.00;102809.38;4989791;28;20118;-88
2021/12/16 07:56:59;;;;;;;57.70;31.80;;;;;;;7.80;100.00;102809.47;4964265;28;20061;-85
2021/12/16 07:59:30;;;;;;;63.95;32.28;;;;;;;7.80;100.00;102827.72;4965950;28;20050;-89
2021/12/16 08:02:00;;;;;;;61.58;30.42;;;;;;;7.81;100.00;102829.47;4955741;28;20058;-87
2021/12/16 08:04:30;;;;;;;59.70;31.30;;;;;;;7.84;100.00;102832.22;4970086;28;20072;-86
2021/12/16 08:07:06;;;;;;;62.70;29.67;;;;;;;7.85;100.00;102839.19;4987672;28;20054;-86
2021/12/16 08:09:37;;;;;;;64.03;31.23;;;;;;;7.85;100.00;102834.88;4962437;28;20606;-86
2021/12/16 08:12:12;;;;;;;55.63;28.00;;;;;;;7.86;100.00;102839.25;4982760;28;20058;-86
2021/12/16 08:14:40;;;;;;;58.38;31.30;;;;;;;7.89;100.00;102836.75;4986339;28;20121;-86
2021/12/16 08:17:09;;;;;;;67.20;30.13;;;;;;;7.90;100.00;102833.31;4980458;28;20050;-86
2021/12/16 08:19:36;;;;;;;60.20;30.83;;;;;;;7.92;100.00;102839.47;4969277;28;20042;-86
2021/12/16 08:22:05;;;;;;;61.33;30.27;;;;;;;7.93;100.00;102845.59;4963993;28;20648;-86
2021/12/16 08:24:37;;;;;;;66.60;32.10;;;;;;;7.95;100.00;102854.34;4969092;28;20055;-86
2021/12/16 08:27:04;;;;;;;59.20;30.42;;;;;;;7.94;100.00;102850.84;4981261;28;20050;-87
2021/12/16 08:29:35;;;;;;;60.70;30.50;;;;;;;7.94;100.00;102860.41;4960095;28;20046;-86
2021/12/16 08:32:04;;;;;;;64.65;30.67;;;;;;;7.95;100.00;102868.28;4962645;28;20050;-86
2021/12/16 08:34:34;;;;;;;68.32;32.28;;;;;;;7.96;100.00;102861.34;4978125;28;20053;-86
2021/12/16 08:37:03;;;;;;;61.38;30.95;;;;;;;7.95;100.00;102863.06;4968955;28;20452;-87
2021/12/16 08:39:32;;;;;;;57.70;29.33;;;;;;;7.97;100.00;102870.94;4971770;28;20061;-86
2021/12/16 08:42:00;;;;;;;54.63;27.55;;;;;;;7.99;100.00;102873.59;4981161;28;20072;-86
2021/12/16 08:44:29;;;;;;;65.03;31.15;;;;;;;8.00;100.00;102868.44;4969552;28;20050;-86
2021/12/16 08:47:04;;;;;;;63.35;30.20;;;;;;;8.03;100.00;102875.50;4968925;28;20054;-89
2021/12/16 08:49:32;;;;;;;64.70;30.55;;;;;;;8.04;100.00;102880.75;4977651;28;20050;-88
2021/12/16 08:52:07;;;;;;;59.75;29.83;;;;;;;8.07;100.00;102880.00;4976193;28;20049;-87
2021/12/16 08:54:34;;;;;;;56.50;30.80;;;;;;;8.06;100.00;102880.84;4970976;28;20046;-86
2021/12/16 08:57:02;;;;;;;56.25;29.42;;;;;;;8.07;100.00;102882.59;4995862;28;20051;-87
2021/12/16 08:59:29;;;;;;;60.25;30.85;;;;;;;8.10;100.00;102885.34;4967954;28;20062;-86
2021/12/16 09:01:59;;;;;;;59.97;29.65;;;;;;;8.12;100.00;102886.28;4978915;28;21308;-88
2021/12/16 09:04:29;;;;;;;60.33;30.33;;;;;;;8.14;100.00;102891.56;4978400;28;20053;-84
2021/12/16 09:07:01;;;;;;;65.45;29.90;;;;;;;8.12;100.00;102894.09;4970191;28;20499;-86
2021/12/16 09:09:34;;;;;;;63.95;30.55;;;;;;;8.13;100.00;102895.00;4975531;28;20377;-87
2021/12/16 09:12:12;;;;;;;60.20;29.85;;;;;;;8.14;100.00;102886.34;4984344;28;20508;-86
2021/12/16 09:14:42;;;;;;;60.80;30.67;;;;;;;8.15;100.00;102896.84;4989221;28;20056;-86
2021/12/16 09:17:23;;;;;;;61.65;31.60;;;;;;;8.15;100.00;102906.38;4957689;28;20073;-87
2021/12/16 09:19:55;;;;;;;58.05;29.38;;;;;;;8.17;100.00;102900.38;4976634;28;20073;-87
2021/12/16 09:22:27;;;;;;;62.00;29.60;;;;;;;8.21;100.00;102904.00;4972067;28;20042;-86
2021/12/16 09:24:56;;;;;;;63.20;28.40;;;;;;;8.21;100.00;102910.13;4986206;28;20045;-89
2021/12/16 09:27:26;;;;;;;57.30;28.75;;;;;;;8.21;100.00;102919.66;4978987;28;20038;-84
2021/12/16 09:29:58;;;;;;;63.80;31.60;;;;;;;8.22;100.00;102924.91;4987774;28;20046;-85
2021/12/16 09:32:28;;;;;;;58.42;29.48;;;;;;;8.22;100.00;102919.69;4976191;28;20050;-87
2021/12/16 09:34:56;;;;;;;55.75;29.98;;;;;;;8.23;100.00;102918.88;4966003;28;20634;-86
2021/12/16 09:37:23;;;;;;;61.35;30.98;;;;;;;8.22;100.00;102924.91;4987349;28;20085;-88
2021/12/16 09:39:53;;;;;;;54.60;30.58;;;;;;;8.20;100.00;102926.59;4968110;28;20488;-86
2021/12/16 09:42:19;;;;;;;55.65;27.85;;;;;;;8.19;100.00;102918.72;4987190;28;20085;-87
2021/12/16 09:44:46;;;;;;;62.90;31.85;;;;;;;8.16;100.00;102924.72;4977305;28;20116;-88
2021/12/16 09:47:15;;;;;;;59.28;31.35;;;;;;;8.17;100.00;102929.06;4960721;28;20089;-87
2021/12/16 09:49:44;;;;;;;62.15;31.52;;;;;;;8.17;100.00;102930.81;4994234;28;20097;-87
2021/12/16 09:52:16;;;;;;;57.88;30.73;;;;;;;8.16;100.00;102932.53;4978637;28;20039;-86
2021/12/16 09:54:46;;;;;;;64.50;31.77;;;;;;;8.17;100.00;102931.69;4992396;28;20038;-88
2021/12/16 09:57:16;;;;;;;60.72;32.00;;;;;;;8.15;100.00;102929.84;4999876;28;20078;-89
2021/12/16 09:59:43;;;;;;;63.40;30.73;;;;;;;8.13;100.00;102939.34;5004396;28;20031;-87
2021/12/16 10:02:18;;;;;;;63.30;30.90;;;;;;;8.14;100.00;102941.13;4981663;28;20104;-87
2021/12/16 10:04:48;;;;;;;65.88;33.05;;;;;;;8.17;100.00;102949.06;4996655;28;20049;-86
2021/12/16 10:07:25;;;;;;;62.45;32.45;;;;;;;8.20;100.00;102957.91;4985391;28;20149;-88
2021/12/16 10:09:56;;;;;;;61.30;30.90;;;;;;;8.21;100.00;102962.31;4982899;28;20055;-86
2021/12/16 10:12:39;;;;;;;59.28;30.83;;;;;;;8.19;100.00;102965.69;4992648;28;20077;-89
2021/12/16 10:17:23;;;;;;;61.13;30.77;;;;;;;8.18;100.00;102964.78;4975739;28;20063;-87
2021/12/16 10:18:16;;;;;;;57.58;30.85;;;;;;;8.15;100.00;102962.06;4976333;28;20038;-86
2021/12/16 10:20:56;;;;;;;58.45;29.15;;;;;;;8.16;100.00;102953.41;4974232;28;20101;-87
2021/12/16 10:23:32;;;;;;;57.28;30.42;;;;;;;8.17;100.00;102956.91;4980049;28;20050;-88
2021/12/16 10:26:08;;;;;;;45.60;25.35;;;;;;;8.19;100.00;102963.06;4941354;28;20062;-87
2021/12/16 10:28:49;;;;;;;51.53;28.25;;;;;;;8.21;100.00;102958.78;4993669;28;20505;-85
2021/12/16 10:31:32;;;;;;;45.83;24.75;;;;;;;8.22;100.00;102950.13;4991238;28;20044;-87
2021/12/16 10:34:08;;;;;;;50.47;27.95;;;;;;;8.25;100.00;102955.47;4976621;28;20588;-88
2021/12/16 10:36:42;;;;;;;51.72;28.17;;;;;;;8.28;100.00;102948.63;4977546;28;20141;-86
2021/12/16 10:39:18;;;;;;;48.65;26.52;;;;;;;8.34;100.00;102947.09;4993876;28;20050;-87
2021/12/16 10:42:00;;;;;;;50.15;28.05;;;;;;;8.35;100.00;102944.53;4966290;28;20056;-85
2021/12/16 10:44:33;;;;;;;57.88;27.90;;;;;;;8.28;100.00;102948.63;4979819;28;20054;-86
2021/12/16 10:47:15;;;;;;;57.47;28.42;;;;;;;8.26;100.00;102939.84;4969313;28;20082;-86
2021/12/16 10:49:49;;;;;;;51.13;27.10;;;;;;;8.28;100.00;102939.94;4995652;28;20246;-87
2021/12/16 10:52:31;;;;;;;55.17;26.27;;;;;;;8.30;100.00;102953.03;4981814;28;20041;-86
2021/12/16 10:55:00;;;;;;;50.22;26.52;;;;;;;8.35;100.00;102964.53;4980027;28;20582;-86
2021/12/16 10:57:33;;;;;;;46.63;24.83;;;;;;;8.38;100.00;102954.19;4990826;28;20042;-86
2021/12/16 11:00:10;;;;;;;48.58;27.65;;;;;;;8.39;100.00;102951.63;4980342;28;20053;-87
2021/12/16 11:02:40;;;;;;;46.15;26.25;;;;;;;8.42;100.00;102951.78;4966240;28;20073;-86
2021/12/16 11:05:22;;;;;;;44.40;25.55;;;;;;;8.44;100.00;102949.22;4977418;28;20042;-85
2021/12/16 11:07:55;;;;;;;43.10;26.95;;;;;;;8.46;100.00;102949.28;4978587;28;20046;-86
2021/12/16 11:10:38;;;;;;;39.40;22.90;;;;;;;8.49;100.00;102937.25;4982392;28;20129;-87
2021/12/16 11:13:14;;;;;;;39.28;23.80;;;;;;;8.55;100.00;102940.09;4962617;28;20106;-87
2021/12/16 11:15:49;;;;;;;43.47;23.25;;;;;;;8.56;100.00;102939.25;4988744;28;20109;-89
2021/12/16 11:18:23;;;;;;;51.42;25.48;;;;;;;8.59;100.00;102938.47;5006531;28;20059;-87
2021/12/16 11:20:57;;;;;;;49.78;26.30;;;;;;;8.56;100.00;102949.69;4960764;28;20146;-88
2021/12/16 11:23:40;;;;;;;43.63;22.73;;;;;;;8.57;100.00;102963.63;4961842;28;20054;-87
2021/12/16 11:26:12;;;;;;;40.38;22.80;;;;;;;8.64;100.00;102973.47;4964009;28;20054;-86
2021/12/16 11:28:49;;;;;;;42.47;23.52;;;;;;;8.64;100.00;102970.84;4944084;28;20113;-87
2021/12/16 11:31:25;;;;;;;;;;;;;;;8.65;100.00;102975.25;4983099;28;20050;-86
2021/12/16 11:33:59;;;;;;;42.83;23.10;;;;;;;8.68;100.00;102971.84;4973864;28;19941;-85
2021/12/16 11:36:45;;;;;;;43.25;24.50;;;;;;;8.71;100.00;102977.22;4982161;28;20130;-87
2021/12/16 11:39:22;;;;;;;41.95;22.45;;;;;;;8.70;100.00;102978.91;4978308;28;20655;-86
2021/12/16 11:42:04;;;;;;;44.05;21.95;;;;;;;8.71;100.00;102985.03;4978349;28;20563;-86
2021/12/16 11:44:40;;;;;;;44.78;24.02;;;;;;;8.72;100.00;102984.19;4962218;28;20046;-86
2021/12/16 11:47:17;;;;;;;42.03;24.52;;;;;;;8.74;100.00;102992.97;4971465;28;20794;-86
2021/12/16 11:49:54;;;;;;;35.60;20.98;;;;;;;8.73;100.00;102999.03;4990412;28;20255;-87
2021/12/16 11:52:31;;;;;;;39.33;22.70;;;;;;;8.74;100.00;102986.03;4971209;28;20552;-86
2021/12/16 11:55:16;;;;;;;35.83;19.92;;;;;;;8.76;100.00;102996.50;4990449;28;20076;-87
2021/12/16 11:57:51;;;;;;;40.08;21.27;;;;;;;8.77;100.00;102993.06;4954826;28;21309;-87
2021/12/16 12:00:30;;;;;;;36.80;20.45;;;;;;;8.80;100.00;102992.28;4971575;28;20064;-85
2021/12/16 12:03:02;;;;;;;34.85;20.20;;;;;;;8.84;100.00;102988.97;4960501;28;20054;-87
2021/12/16 12:05:49;;;;;;;33.35;19.92;;;;;;;8.89;100.00;102997.84;4954516;28;20054;-89
2021/12/16 12:08:27;;;;;;;32.35;19.73;;;;;;;8.94;100.00;102991.06;4960295;28;20505;-86
2021/12/16 12:11:06;;;;;;;32.95;19.33;;;;;;;8.96;100.00;102983.28;4969658;28;20058;-89
2021/12/16 12:13:40;;;;;;;29.75;17.35;;;;;;;8.97;100.00;102987.66;4995356;28;20023;-88
2021/12/16 12:16:22;;;;;;;32.45;16.10;;;;;;;8.95;100.00;102985.00;4963562;28;20077;-86
2021/12/16 12:19:00;;;;;;;32.50;17.15;;;;;;;8.95;100.00;102985.00;4971337;28;20049;-88
2021/12/16 12:22:04;;;;;;;33.92;17.45;;;;;;;8.94;100.00;102985.84;4988762;28;20122;-86
2021/12/16 12:24:37;;;;;;;30.67;16.92;;;;;;;8.93;100.00;102986.69;4958579;28;20062;-88
2021/12/16 12:27:11;;;;;;;30.38;17.83;;;;;;;8.93;100.00;102994.53;4959841;28;20050;-86
2021/12/16 12:32:39;;;;;;;30.02;18.75;;;;;;;8.93;100.00;102997.16;4985710;28;20133;-87
2021/12/16 12:35:23;;;;;;;30.00;16.00;;;;;;;8.91;100.00;102997.06;4990414;28;20311;-88
2021/12/16 12:37:59;;;;;;;28.83;16.70;;;;;;;8.90;100.00;102990.09;4991986;28;20062;-88
2021/12/16 12:40:41;;;;;;;29.05;16.13;;;;;;;8.86;100.00;102985.56;4979075;28;20049;-85
2021/12/16 12:43:16;;;;;;;27.65;16.42;;;;;;;8.83;100.00;102993.31;4983066;28;20050;-87
2021/12/16 12:45:45;;;;;;;26.00;14.93;;;;;;;8.81;100.00;102994.09;4971141;28;20050;-86
2021/12/16 12:48:21;;;;;;;24.02;13.88;;;;;;;8.78;100.00;102993.13;4959050;28;20039;-86
2021/12/16 12:50:55;;;;;;;31.63;15.45;;;;;;;8.79;100.00;102996.66;4972038;28;20061;-87
2021/12/16 12:53:33;;;;;;;30.23;18.05;;;;;;;8.78;100.00;102993.13;4968735;28;20046;-87
2021/12/16 12:56:13;;;;;;;25.10;14.93;;;;;;;8.79;100.00;102994.03;4978821;28;20050;-86
2021/12/16 12:59:11;;;;;;;23.33;14.68;;;;;;;8.80;100.00;102997.53;4986292;28;20046;-86
2021/12/16 13:01:58;;;;;;;26.13;14.05;;;;;;;8.78;100.00;102997.47;4973335;28;20157;-87
2021/12/16 13:04:33;;;;;;;21.17;13.25;;;;;;;8.78;100.00;102993.13;4977112;28;20156;-86
2021/12/16 13:07:10;;;;;;;22.10;13.48;;;;;;;8.78;100.00;102987.03;4985280;28;20046;-86
2021/12/16 13:09:37;;;;;;;23.42;13.80;;;;;;;8.80;100.00;102980.16;4963810;28;20481;-86
2021/12/16 13:12:50;;;;;;;23.48;12.85;;;;;;;8.82;100.00;102988.03;4973659;28;20058;-89
2021/12/16 13:15:29;;;;;;;22.52;12.65;;;;;;;8.81;100.00;102984.50;4976226;28;20034;-88
2021/12/16 13:24:21;;;;;;;20.33;12.93;;;;;;;8.82;100.00;102999.34;4978513;28;20045;-86
2021/12/16 13:27:07;;;;;;;15.68;10.77;;;;;;;8.84;100.00;103000.31;4997968;28;20042;-88
2021/12/16 13:29:42;;;;;;;23.58;11.98;;;;;;;8.85;100.00;102999.50;4987112;28;20072;-86
2021/12/16 13:32:19;;;;;;;25.42;14.35;;;;;;;8.85;100.00;103002.09;4980588;28;20797;-88
2021/12/16 13:35:09;;;;;;;28.50;14.85;;;;;;;8.83;100.00;103003.75;4988220;28;20045;-89
2021/12/16 13:37:41;;;;;;;18.15;12.10;;;;;;;8.81;100.00;103000.19;4986290;28;20045;-85
2021/12/16 13:40:32;;;;;;;21.77;12.80;;;;;;;8.78;100.00;103000.97;5003381;28;20048;-88
2021/12/16 13:43:11;;;;;;;22.08;12.95;;;;;;;8.78;100.00;103000.09;4964845;28;20082;-88
2021/12/16 13:46:12;;;;;;;22.27;13.13;;;;;;;8.76;100.00;103000.03;4970191;28;20057;-89